Nearby METAR Reports

 

KSYN - Stanton, Minnesota, USA
Distance from station: NW 20mi, 33km
Updated: Mon, 24-Jun-2019 7:16am CDT
Overcast
Overcast
 Wind from WNW
Wind: WNW 10 mph , 17 km/h
Temperature: 63°F , 17°C
Dew Point: 59°F , 15°C
Humidity: 88%
Barometer: 29.61 inHg , 1002.7 hPa
Clouds: Overcast
Visibility: 10 miles , 16 km
Cloud details: Partly cloudy 2500 ft
Overcast 3400 ft
2019/06/24 12:16 KSYN 241216Z AUTO 30009KT 10SM SCT025 OVC034 17/15 A2961 RMK AO2 T01690152
KTOB - Dodge Center, Minnesota, USA
Distance from station: SSW 21mi, 34km
Updated: Mon, 24-Jun-2019 7:16am CDT
Overcast
Overcast
 Wind from WNW
Wind: WNW 9 mph , 15 km/h
Temperature: 61°F , 16°C
Dew Point: 57°F , 14°C
Humidity: 88%
Barometer: 29.63 inHg , 1003.4 hPa
Clouds: Overcast
Visibility: 10 miles , 16 km
Cloud details: Mostly cloudy 1800 ft
Overcast 7000 ft
2019/06/24 12:16 KTOB 241216Z AUTO 30008KT 10SM BKN018 OVC070 16/14 A2963 RMK AO2
K9MN - St Mary Hospital, Minnesota, USA
Distance from station: SSE 22mi, 35km
Updated: Mon, 24-Jun-2019 7:16am CDT
Overcast
Overcast
 Wind from WNW
Wind: WNW 5 mph , 7 km/h
Temperature: 61°F , 16°C
Dew Point: 61°F , 16°C
Humidity: 100%
Barometer: 29.62 inHg , 1003 hPa
Clouds: Overcast
Visibility: 10 miles , 16 km
Cloud details: Mostly cloudy 700 ft
Overcast 1700 ft
2019/06/24 12:16 K9MN 241216Z AUTO 29004KT 10SM BKN007 OVC017 16/16 A2962 RMK AO1 T01610162
 
KRGK - Red Wing, Minnesota, USA
Distance from station: NNE 22mi, 35km
Updated: Mon, 24-Jun-2019 7:19am CDT
Partly cloudy
Partly cloudy
 Wind from WNW
Wind: WNW 8 mph , 13 km/h
Clouds: Partly cloudy
Visibility: 10 miles , 16 km
Cloud details: Partly cloudy 2700 ft
2019/06/24 12:19 KRGK 241219Z AUTO 30007KT 10SM SCT027 120 18/17 A2958 RMK AO2
KRST - Rochester, Minnesota, USA
Distance from station: SSE 29mi, 47km
Updated: Mon, 24-Jun-2019 6:54am CDT
Mostly cloudy
Mostly cloudy
 Wind from WNW
Wind: WNW 10 mph , 17 km/h
Temperature: 61°F , 16°C
Dew Point: 59°F , 15°C
Humidity: 94%
Barometer: 29.62 inHg , 1003 hPa
Clouds: Mostly cloudy
Visibility: 10 miles , 16 km
Cloud details: Mostly cloudy 700 ft
Mostly cloudy 6000 ft
Mostly cloudy 12000 ft
2019/06/24 11:54 KRST 241154Z 29009KT 10SM BKN007 BKN060 BKN120 16/15 A2962 RMK AO2 CIG 006V010 SLP027 60000 70025 T01610150 10183 20161 52009
KOWA - Owatonna, Minnesota, USA
Distance from station: WSW 31mi, 50km
Updated: Mon, 24-Jun-2019 6:41am CDT
Mostly cloudy
Mostly cloudy
 Wind from WNW
Wind: WNW 8 mph , 13 km/h
Temperature: 61°F , 16°C
Dew Point: 59°F , 15°C
Humidity: 94%
Barometer: 29.64 inHg , 1003.7 hPa
Clouds: Mostly cloudy
Visibility: 10 miles , 16 km
Cloud details: Mostly cloudy 1100 ft
Mostly cloudy 2300 ft
2019/06/24 11:41 KOWA 241141Z AUTO 29007KT 10SM BKN011 BKN023 16/15 A2964 RMK AO2
 
KFBL - Faribault Muni, Minnesota, USA
Distance from station: W 32mi, 51km
Updated: Thu, 20-Sep-2018 6:41pm CDT
NOT Current

 Wind from SSE
Wind: SSE 18 mph , 30 km/h, Gust: 45 mph , 72 km/h
Visibility: 4 miles , 6 km
2018/09/20 23:41 KFBL 202341Z AUTO 15016G39KT 122V182 4SM +VCTSRA SCT010 BKN070 21/21 A2951 RMK AO2 P0008 LTG DSNT ALQDS
KSGS - South St Paul, Minnesota, USA
Distance from station: NNW 43mi, 69km
Updated: Mon, 24-Jun-2019 7:15am CDT
Overcast
Overcast
 Wind from W
Wind: W 8 mph , 13 km/h
Temperature: 63°F , 17°C
Dew Point: 61°F , 16°C
Humidity: 94%
Barometer: 29.60 inHg , 1002.4 hPa
Clouds: Overcast
Visibility: 10 miles , 16 km
Cloud details: Overcast 3400 ft
2019/06/24 12:15 KSGS 241215Z AUTO 28007KT 10SM OVC034 17/16 A2960 RMK AO2 T01710157
KAUM - Austin Muni, Minnesota, USA
Distance from station: SSW 46mi, 73km
Updated: Mon, 24-Jun-2019 7:16am CDT
Overcast
Overcast
 Wind from WNW
Wind: WNW 6 mph , 9 km/h
Temperature: 63°F , 17°C
Dew Point: 55°F , 13°C
Humidity: 77%
Barometer: 29.64 inHg , 1003.7 hPa
Clouds: Overcast
Visibility: 10 miles , 16 km
Cloud details: Mostly cloudy 4400 ft
Overcast 5000 ft
2019/06/24 12:16 KAUM 241216Z AUTO 29005KT 10SM BKN044 OVC050 17/13 A2964 RMK AO2
 
KACQ - Waseca, Minnesota, USA
Distance from station: WSW 46mi, 75km
Updated: Mon, 24-Jun-2019 7:15am CDT
Rain, Overcast
Rain, Overcast
 Wind from WNW
Wind: WNW 9 mph , 15 km/h
Temperature: 59°F , 15°C
Dew Point: 55°F , 13°C
Humidity: 88%
Barometer: 29.65 inHg , 1004.1 hPa
Summary: Rain
Clouds: Overcast
Visibility: 10 miles , 16 km
Cloud details: Partly cloudy 2600 ft
Partly cloudy 3900 ft
Overcast 10000 ft
2019/06/24 12:15 KACQ 241215Z AUTO 30008KT 10SM RA SCT026 SCT039 OVC100 15/13 A2965 RMK AO2
KSTP - St. Paul, Minnesota, USA
Distance from station: NNW 47mi, 76km
Updated: Mon, 24-Jun-2019 6:53am CDT
Overcast
Overcast
 Wind from W
Wind: W 10 mph , 17 km/h, Gust: 21 mph , 33 km/h
Temperature: 63°F , 17°C
Dew Point: 59°F , 15°C
Humidity: 88%
Barometer: 29.60 inHg , 1002.4 hPa
Clouds: Overcast
Visibility: 10 miles , 16 km
Cloud details: Partly cloudy 2600 ft
Overcast 3400 ft
2019/06/24 11:53 KSTP 241153Z 28009G18KT 10SM SCT026 OVC034 17/15 A2960 RMK AO2 SLP020 60022 70138 T01720150 10178 20167 53001
KMSP - Minneapolis, Minnesota, USA
Distance from station: NW 49mi, 78km
Updated: Mon, 24-Jun-2019 7:10am CDT
Mostly cloudy
Mostly cloudy
 Wind from WNW
Wind: WNW 12 mph , 19 km/h
Temperature: 64°F , 18°C
Dew Point: 59°F , 15°C
Humidity: 83%
Barometer: 29.61 inHg , 1002.7 hPa
Clouds: Mostly cloudy
Visibility: 10 miles , 16 km
Cloud details: Mostly cloudy 3100 ft
Mostly cloudy 4000 ft
Mostly cloudy 25000 ft
2019/06/24 12:10 KMSP 241210Z 30010KT 10SM BKN031 BKN040 BKN250 18/15 A2961 RMK AO2 T01780150